This is the latest recevied weather packets stored in our database for station/object BV3BA-13. If no packets are shown the sender has not sent any weather packets the latest 10 day(s).
| Time | Temp. | Humidity | Pressure | Rain* | Wind** | Luminosity | Snow |
|---|---|---|---|---|---|---|---|
| 1777874223 | 24.44° C | 54% | 1011.4 hPa | 0 mm | - | - | - |
| 1777873623 | 24.44° C | 54% | 1011.4 hPa | 0 mm | - | - | - |
| 1777873024 | 25° C | 56% | 1011.4 hPa | 0 mm | - | - | - |
| 1777872424 | 25° C | 53% | 1011.6 hPa | 0 mm | - | - | - |
| 1777871825 | 25° C | 53% | 1011.5 hPa | 0 mm | - | - | - |
| 1777871224 | 25.56° C | 50% | 1011.7 hPa | 0 mm | - | - | - |
| 1777870624 | 25° C | 49% | 1012 hPa | 0 mm | - | - | - |
| 1777870024 | 25.56° C | 51% | 1011.8 hPa | 0 mm | - | - | - |
| 1777869424 | 25° C | 53% | 1012 hPa | 0 mm | - | - | - |
| 1777868824 | 25° C | 52% | 1012.1 hPa | 0 mm | - | - | - |
| 1777868223 | 25° C | 56% | 1012.4 hPa | 0 mm | - | - | - |
| 1777867623 | 24.44° C | 53% | 1012.3 hPa | 0 mm | - | - | - |
| 1777867023 | 24.44° C | 54% | 1012.7 hPa | 0 mm | - | - | - |
| 1777865823 | 23.89° C | 57% | 1012.7 hPa | 0 mm | - | - | - |
| 1777846031 | 20.56° C | 82% | 1012.6 hPa | 0.51 mm | - | - | - |
| 1777845423 | 21.11° C | 80% | 1012.1 hPa | 0.51 mm | - | - | - |
| 1777844823 | 20.56° C | 80% | 1012.1 hPa | 0 mm | - | - | - |
| 1777844224 | 21.11° C | 79% | 1012 hPa | 0 mm | - | - | - |
| 1777843023 | 21.67° C | 74% | 1011.9 hPa | 0 mm | - | - | - |
| 1777842424 | 22.22° C | 69% | 1011.9 hPa | 0 mm | - | - | - |
| 1777841824 | 22.22° C | 70% | 1011.5 hPa | 0 mm | - | - | - |
| 1777841224 | 22.22° C | 70% | 1011.6 hPa | 0 mm | - | - | - |
| 1777840623 | 22.22° C | 71% | 1011.3 hPa | 0 mm | - | - | - |
| 1777840023 | 22.22° C | 72% | 1011.3 hPa | 0 mm | - | - | - |
| 1777839424 | 22.22° C | 73% | 1011.3 hPa | 0 mm | - | - | - |
* Rain latest hour (hover to see other rain measurements)
** Current wind speed in m/s (hover to see current wind gust speed)